Time;durP1;ratioP1;P1;durP2;ratioP2;P2;SDS_P1;SDS_P2;PMS_P1;PMS_P2;Temp;Humidity;BMP_temperature;BMP_pressure;BME280_temperature;BME280_humidity;BME280_pressure;Samples;Min_cycle;Max_cycle;Signal;HPM_P1;HPM_P2
2021/10/06 00:02:02;;;;;;;1.80;1.43;;;12.50;99.90;12.40;100133.00;;;;4956159;28;118003;-64
2021/10/06 00:04:28;;;;;;;1.53;1.43;;;12.50;99.90;12.30;100130.00;;;;4955720;28;93687;-65
2021/10/06 00:06:53;;;;;;;1.47;1.37;;;12.40;99.90;12.30;100131.00;;;;4958465;28;87824;-65
2021/10/06 00:09:19;;;;;;;2.37;1.40;;;12.30;99.90;12.20;100143.00;;;;4960662;28;117551;-64
2021/10/06 00:11:45;;;;;;;1.40;1.30;;;12.30;99.90;12.10;100141.00;;;;4955574;28;115618;-65
2021/10/06 00:14:12;;;;;;;1.73;1.37;;;12.20;99.90;12.10;100144.00;;;;4957425;28;87808;-66
2021/10/06 00:16:38;;;;;;;2.27;1.87;;;12.20;99.90;12.00;100144.00;;;;4957160;28;87068;-66
2021/10/06 00:19:05;;;;;;;2.97;1.23;;;12.10;99.90;12.00;100143.00;;;;4938019;28;89837;-65
2021/10/06 00:21:30;;;;;;;2.07;1.60;;;12.00;99.90;11.90;100142.00;;;;4955747;28;89476;-64
2021/10/06 00:23:56;;;;;;;1.83;1.57;;;12.00;99.90;11.90;100139.00;;;;4969943;28;93600;-65
2021/10/06 00:26:22;;;;;;;2.03;1.57;;;11.90;99.90;11.80;100140.00;;;;4976492;28;88024;-65
2021/10/06 00:28:48;;;;;;;1.43;0.93;;;11.90;99.90;11.80;100141.00;;;;4962128;28;116501;-65
2021/10/06 00:31:13;;;;;;;1.93;1.63;;;11.90;99.90;11.80;100148.00;;;;4954797;28;117953;-65
2021/10/06 00:33:39;;;;;;;2.83;1.67;;;11.80;99.90;11.80;100144.00;;;;4956857;28;110119;-65
2021/10/06 00:36:05;;;;;;;1.33;1.23;;;11.90;99.90;11.80;100143.00;;;;4956251;28;107714;-65
2021/10/06 00:38:31;;;;;;;2.00;1.77;;;11.80;99.90;11.80;100140.00;;;;4958362;28;87999;-65
2021/10/06 00:40:57;;;;;;;1.80;1.40;;;11.80;99.90;11.80;100150.00;;;;4956039;28;115808;-65
2021/10/06 00:43:23;;;;;;;3.27;1.77;;;11.80;99.90;11.80;100144.00;;;;4968970;28;104399;-65
2021/10/06 00:45:49;;;;;;;1.33;1.20;;;11.80;99.90;11.80;100147.00;;;;4975464;28;87875;-65
2021/10/06 00:48:16;;;;;;;1.33;1.20;;;11.80;99.90;11.90;100144.00;;;;4974895;28;90166;-65
2021/10/06 00:50:42;;;;;;;1.00;1.00;;;11.90;99.90;11.90;100142.00;;;;4976169;28;88826;-65
2021/10/06 00:53:08;;;;;;;1.50;1.20;;;11.90;99.90;12.00;100149.00;;;;4975515;28;87826;-66
2021/10/06 00:55:37;;;;;;;2.33;1.77;;;12.00;99.90;12.00;100146.00;;;;4976178;28;90100;-66
2021/10/06 00:58:04;;;;;;;2.20;1.67;;;12.00;99.90;12.00;100147.00;;;;4975593;28;88795;-66
2021/10/06 01:00:30;;;;;;;5.87;1.90;;;12.20;99.90;12.00;100145.00;;;;4964096;28;89477;-66
2021/10/06 01:02:55;;;;;;;2.07;1.57;;;12.00;99.90;12.10;100148.00;;;;4964331;28;109357;-66
2021/10/06 01:05:21;;;;;;;2.13;1.93;;;12.00;99.90;12.00;100144.00;;;;4964953;28;108946;-65
2021/10/06 01:07:47;;;;;;;2.03;1.80;;;12.00;99.90;12.00;100155.00;;;;4955484;28;111244;-66
2021/10/06 01:10:13;;;;;;;2.77;1.83;;;12.00;99.90;12.00;100145.00;;;;4955509;28;87925;-66
2021/10/06 01:12:40;;;;;;;3.37;2.13;;;12.00;99.90;12.00;100147.00;;;;4962542;28;88772;-65
2021/10/06 01:15:10;;;;;;;2.17;1.70;;;12.00;99.90;12.00;100161.00;;;;4973616;28;90789;-65
2021/10/06 01:17:36;;;;;;;1.87;1.77;;;12.00;99.90;12.00;100149.00;;;;4975137;28;89033;-66
2021/10/06 01:20:06;;;;;;;2.03;1.70;;;12.00;99.90;12.00;100154.00;;;;4956487;28;88042;-66
2021/10/06 01:22:31;;;;;;;3.23;1.60;;;12.00;99.90;12.00;100147.00;;;;4974659;28;90681;-65
2021/10/06 01:25:00;;;;;;;1.67;1.57;;;12.00;99.90;11.90;100152.00;;;;4975083;28;104315;-65
2021/10/06 01:27:26;;;;;;;2.10;1.90;;;12.00;99.90;11.90;100152.00;;;;4963547;28;89244;-65
2021/10/06 01:29:51;;;;;;;2.47;2.27;;;12.00;99.90;11.90;100157.00;;;;4956143;28;101866;-66
2021/10/06 01:32:18;;;;;;;3.23;1.80;;;11.90;99.90;11.90;100147.00;;;;4973589;28;110998;-65
2021/10/06 01:34:57;;;;;;;2.77;2.40;;;11.90;99.90;11.90;100145.00;;;;4974542;28;108834;-66
2021/10/06 01:37:25;;;;;;;2.20;1.93;;;12.00;99.90;12.00;100157.00;;;;4974647;28;89866;-66
2021/10/06 01:39:51;;;;;;;2.90;2.33;;;12.00;99.90;12.00;100152.00;;;;4975206;28;89112;-66
2021/10/06 01:42:17;;;;;;;2.37;2.07;;;12.00;99.90;12.10;100154.00;;;;4974077;28;87641;-66
2021/10/06 01:44:43;;;;;;;2.37;1.90;;;12.00;99.90;12.10;100145.00;;;;4974770;28;87689;-66
2021/10/06 01:47:08;;;;;;;2.57;2.30;;;12.10;99.90;12.10;100143.00;;;;4971162;28;116864;-66
2021/10/06 01:49:34;;;;;;;2.87;2.20;;;12.10;99.90;12.20;100152.00;;;;4954663;28;117546;-66
2021/10/06 01:52:01;;;;;;;1.90;1.67;;;12.20;99.90;12.20;100158.00;;;;4965951;28;110112;-66
2021/10/06 01:54:27;;;;;;;3.03;2.20;;;12.20;99.90;12.20;100164.00;;;;4963983;28;86888;-66
2021/10/06 01:56:52;;;;;;;3.43;1.90;;;12.30;99.90;12.30;100160.00;;;;4954111;28;119296;-65
2021/10/06 01:59:19;;;;;;;3.83;2.43;;;12.30;99.90;12.30;100160.00;;;;4954278;28;117894;-65
2021/10/06 02:01:45;;;;;;;4.03;2.03;;;12.30;99.90;12.30;100158.00;;;;4955831;28;88849;-66
2021/10/06 02:04:10;;;;;;;3.07;2.27;;;12.30;99.90;12.40;100173.00;;;;4954766;28;108375;-66
2021/10/06 02:06:36;;;;;;;3.27;2.43;;;12.30;99.90;12.40;100167.00;;;;4956057;28;88667;-66
2021/10/06 02:09:02;;;;;;;3.43;2.50;;;12.30;99.90;12.40;100178.00;;;;4965784;28;117744;-66
2021/10/06 02:11:27;;;;;;;3.40;2.50;;;12.40;99.90;12.40;100178.00;;;;4955537;28;88083;-66
2021/10/06 02:13:53;;;;;;;2.33;2.13;;;12.40;99.90;12.50;100172.00;;;;4967756;28;102651;-66
2021/10/06 02:16:19;;;;;;;3.87;2.60;;;12.40;99.90;12.40;100179.00;;;;4974259;28;117120;-65
2021/10/06 02:18:45;;;;;;;3.67;3.00;;;12.40;99.90;12.50;100175.00;;;;4969866;28;118417;-65
2021/10/06 02:21:10;;;;;;;5.17;2.97;;;12.40;99.90;12.50;100187.00;;;;4957449;28;87988;-66
2021/10/06 02:23:36;;;;;;;3.87;2.50;;;12.40;99.90;12.40;100187.00;;;;4973689;28;107701;-65
2021/10/06 02:26:02;;;;;;;2.87;2.53;;;12.40;99.90;12.40;100189.00;;;;4952443;28;88886;-65
2021/10/06 02:28:28;;;;;;;3.40;2.97;;;12.40;99.90;12.40;100196.00;;;;4956638;28;88800;-66
2021/10/06 02:30:55;;;;;;;2.67;1.93;;;12.40;99.90;12.40;100195.00;;;;4955768;28;109699;-64
2021/10/06 02:33:21;;;;;;;3.03;2.70;;;12.40;99.90;12.40;100205.00;;;;4958538;28;87875;-65
2021/10/06 02:35:46;;;;;;;2.17;1.97;;;12.40;99.90;12.40;100198.00;;;;4956686;28;114799;-65
2021/10/06 02:38:12;;;;;;;6.40;2.70;;;12.40;99.90;12.40;100210.00;;;;4956454;28;117882;-66
2021/10/06 02:40:38;;;;;;;4.27;2.40;;;12.40;99.90;12.40;100217.00;;;;4957308;28;109836;-64
2021/10/06 02:43:04;;;;;;;3.60;2.60;;;12.40;99.90;12.40;100207.00;;;;4947924;28;87011;-64
2021/10/06 02:45:30;;;;;;;4.07;2.80;;;12.40;99.90;12.40;100212.00;;;;4939533;28;117469;-64
2021/10/06 02:47:55;;;;;;;2.50;2.30;;;12.40;99.90;12.40;100217.00;;;;4953844;28;93660;-65
2021/10/06 02:50:24;;;;;;;3.07;2.57;;;12.40;99.90;12.50;100228.00;;;;4956108;28;108717;-64
2021/10/06 02:52:50;;;;;;;2.77;2.10;;;12.40;99.90;12.50;100230.00;;;;4949638;28;87906;-64
2021/10/06 02:55:17;;;;;;;3.27;2.23;;;12.50;99.90;12.50;100236.00;;;;4937219;28;88351;-64
2021/10/06 02:57:42;;;;;;;3.20;2.63;;;12.50;99.90;12.50;100235.00;;;;4951070;28;88589;-65
2021/10/06 03:00:10;;;;;;;2.87;2.10;;;12.50;99.90;12.60;100240.00;;;;4957058;28;109680;-65
2021/10/06 03:02:39;;;;;;;2.50;2.30;;;12.50;99.90;12.60;100240.00;;;;4957865;28;87701;-64
2021/10/06 03:05:07;;;;;;;4.67;2.57;;;12.60;99.90;12.60;100243.00;;;;4957553;28;89273;-64
2021/10/06 03:07:32;;;;;;;3.10;2.37;;;12.60;99.90;12.70;100247.00;;;;4956354;28;87994;-64
2021/10/06 03:09:58;;;;;;;3.97;2.30;;;12.60;99.90;12.70;100257.00;;;;4957025;28;109476;-64
2021/10/06 03:12:24;;;;;;;3.03;1.97;;;12.60;99.90;12.70;100261.00;;;;4956799;28;109836;-63
2021/10/06 03:14:50;;;;;;;2.90;2.17;;;12.70;99.90;12.70;100259.00;;;;4956713;28;89166;-66
2021/10/06 03:17:15;;;;;;;2.90;1.73;;;12.70;99.90;12.80;100272.00;;;;4957321;28;88100;-64
2021/10/06 03:19:41;;;;;;;2.77;2.10;;;12.70;99.90;12.80;100267.00;;;;4957081;28;110274;-65
2021/10/06 03:22:06;;;;;;;3.20;1.83;;;12.70;99.90;12.80;100267.00;;;;4956647;28;109563;-65
2021/10/06 03:24:32;;;;;;;2.43;1.73;;;12.80;99.90;12.90;100273.00;;;;4950457;28;117826;-65
2021/10/06 03:26:58;;;;;;;2.27;1.63;;;12.80;99.90;12.90;100276.00;;;;4954689;28;118045;-65
2021/10/06 03:29:23;;;;;;;2.80;1.70;;;12.80;99.90;12.90;100290.00;;;;4956055;28;110440;-65
2021/10/06 03:31:49;;;;;;;2.77;2.03;;;12.80;99.90;13.00;100299.00;;;;4959280;28;87380;-65
2021/10/06 03:34:15;;;;;;;3.10;1.80;;;12.90;99.90;13.00;100308.00;;;;4968027;28;108990;-64
2021/10/06 03:36:41;;;;;;;3.23;1.33;;;13.00;99.90;13.10;100300.00;;;;4956622;28;112646;-64
2021/10/06 03:39:06;;;;;;;2.07;1.23;;;13.00;99.90;13.20;100309.00;;;;4954930;28;111460;-65
2021/10/06 03:41:32;;;;;;;1.80;1.13;;;13.10;99.90;13.20;100319.00;;;;4957257;28;104545;-64
2021/10/06 03:43:58;;;;;;;1.10;0.97;;;13.10;99.90;13.20;100308.00;;;;4955746;28;117549;-64
2021/10/06 03:46:23;;;;;;;1.90;1.70;;;13.20;99.90;13.30;100308.00;;;;4956309;28;117644;-64
2021/10/06 03:48:51;;;;;;;1.90;1.43;;;13.20;99.90;13.30;100307.00;;;;4956903;28;87727;-64
2021/10/06 03:51:17;;;;;;;5.70;2.53;;;13.20;99.90;13.30;100309.00;;;;4957213;28;87736;-65
2021/10/06 03:53:43;;;;;;;2.97;1.90;;;13.30;99.90;13.30;100322.00;;;;4972323;28;97855;-64
2021/10/06 03:56:09;;;;;;;3.90;1.60;;;13.30;99.90;13.30;100322.00;;;;4957428;28;118428;-64
2021/10/06 03:58:35;;;;;;;1.77;1.23;;;13.30;99.90;13.30;100332.00;;;;4955776;28;111646;-64
2021/10/06 04:01:02;;;;;;;1.70;1.23;;;13.30;99.90;13.40;100333.00;;;;4956909;28;87923;-65
2021/10/06 04:03:28;;;;;;;1.27;1.00;;;13.30;99.90;13.40;100335.00;;;;4956462;28;89690;-64
2021/10/06 04:05:53;;;;;;;1.07;0.70;;;13.30;99.90;13.40;100341.00;;;;4957737;28;118063;-64
2021/10/06 04:08:19;;;;;;;2.07;0.97;;;13.40;99.90;13.40;100337.00;;;;4956424;28;111008;-65
2021/10/06 04:10:45;;;;;;;1.37;1.03;;;13.40;99.90;13.40;100346.00;;;;4956163;28;104900;-64
2021/10/06 04:13:10;;;;;;;1.43;1.00;;;13.40;99.90;13.40;100339.00;;;;4937511;28;113770;-64
2021/10/06 04:15:37;;;;;;;0.80;0.50;;;13.40;99.90;13.40;100350.00;;;;4937989;28;116758;-64
2021/10/06 04:18:05;;;;;;;0.67;0.60;;;13.40;99.90;13.40;100356.00;;;;4956398;28;94879;-64
2021/10/06 04:20:32;;;;;;;0.63;0.40;;;13.40;99.90;13.40;100347.00;;;;4957130;28;87164;-64
2021/10/06 04:22:58;;;;;;;0.40;0.40;;;13.40;99.90;13.50;100356.00;;;;4956173;28;88517;-64
2021/10/06 04:25:24;;;;;;;1.07;0.43;;;13.40;99.90;13.50;100358.00;;;;4955050;28;117442;-64
2021/10/06 04:27:49;;;;;;;0.43;0.43;;;13.40;99.90;13.50;100365.00;;;;4955511;28;88645;-65
2021/10/06 04:30:15;;;;;;;0.87;0.50;;;13.50;99.90;13.50;100363.00;;;;4955620;28;109102;-64
2021/10/06 04:32:42;;;;;;;3.50;0.40;;;13.50;99.90;13.50;100369.00;;;;4970363;28;118811;-64
2021/10/06 04:35:09;;;;;;;2.20;0.23;;;13.50;99.90;13.50;100366.00;;;;4956223;28;88699;-64
2021/10/06 04:37:35;;;;;;;0.40;0.40;;;13.50;99.90;13.50;100367.00;;;;4969711;28;88009;-65
2021/10/06 04:40:00;;;;;;;0.50;0.50;;;13.50;99.90;13.50;100375.00;;;;4975939;28;108131;-64
2021/10/06 04:42:26;;;;;;;1.70;0.50;;;13.70;99.90;13.60;100388.00;;;;4970004;28;118006;-65
2021/10/06 04:44:52;;;;;;;3.00;0.73;;;13.50;99.90;13.60;100397.00;;;;4955472;28;118022;-64
2021/10/06 04:47:18;;;;;;;0.50;0.40;;;13.50;99.90;13.50;100397.00;;;;4955491;28;110072;-65
2021/10/06 04:49:43;;;;;;;0.20;0.20;;;13.50;99.90;13.50;100400.00;;;;4955145;28;108755;-64
2021/10/06 04:52:09;;;;;;;0.37;0.37;;;13.50;99.90;13.50;100418.00;;;;4957179;28;118858;-64
2021/10/06 04:54:35;;;;;;;0.60;0.40;;;13.50;99.90;13.50;100406.00;;;;4975353;28;88861;-64
2021/10/06 04:57:00;;;;;;;0.23;0.23;;;13.50;99.90;13.50;100412.00;;;;4974356;28;109929;-64
2021/10/06 04:59:26;;;;;;;0.30;0.30;;;13.40;99.90;13.50;100402.00;;;;4975200;28;87738;-64
2021/10/06 05:01:52;;;;;;;0.53;0.53;;;13.50;99.90;13.40;100418.00;;;;4975930;28;88639;-64
2021/10/06 05:04:17;;;;;;;0.50;0.40;;;13.40;99.90;13.40;100423.00;;;;4958677;28;116835;-64
2021/10/06 05:06:43;;;;;;;0.50;0.47;;;13.40;99.90;13.40;100419.00;;;;4955566;28;110549;-65
2021/10/06 05:09:09;;;;;;;1.13;0.50;;;13.40;99.90;13.40;100430.00;;;;4974002;28;109552;-65
2021/10/06 05:11:34;;;;;;;0.40;0.27;;;13.30;99.90;13.40;100425.00;;;;4975140;28;88883;-63
2021/10/06 05:14:00;;;;;;;0.40;0.30;;;13.40;99.90;13.30;100419.00;;;;4958347;28;93883;-64
2021/10/06 05:16:26;;;;;;;0.57;0.37;;;13.30;99.90;13.30;100417.00;;;;4955353;28;89043;-65
2021/10/06 05:18:52;;;;;;;2.73;0.57;;;13.30;99.90;13.30;100419.00;;;;4954511;28;88061;-65
2021/10/06 05:21:17;;;;;;;0.73;0.37;;;13.30;99.90;13.30;100428.00;;;;4974652;28;118115;-63
2021/10/06 05:23:43;;;;;;;0.43;0.27;;;13.20;99.90;13.30;100433.00;;;;4957957;28;116817;-64
2021/10/06 05:26:09;;;;;;;2.20;0.50;;;13.20;99.90;13.20;100438.00;;;;4954665;28;110959;-64
2021/10/06 05:28:35;;;;;;;0.73;0.40;;;13.20;99.90;13.20;100448.00;;;;4969752;28;107820;-65
2021/10/06 05:31:00;;;;;;;0.77;0.40;;;13.20;99.90;13.20;100449.00;;;;4974069;28;117125;-65
2021/10/06 05:33:26;;;;;;;1.50;0.70;;;13.20;99.90;13.20;100449.00;;;;4955386;28;87785;-66
2021/10/06 05:35:52;;;;;;;2.00;0.40;;;13.20;99.90;13.20;100451.00;;;;4975740;28;87722;-64
2021/10/06 05:38:18;;;;;;;0.23;0.20;;;13.20;99.90;13.20;100460.00;;;;4965393;28;107727;-64
2021/10/06 05:40:44;;;;;;;0.43;0.43;;;13.10;99.90;13.20;100458.00;;;;4970128;28;118651;-64
2021/10/06 05:43:13;;;;;;;0.77;0.60;;;13.20;99.90;13.20;100465.00;;;;4958960;28;99354;-64
2021/10/06 05:45:39;;;;;;;0.70;0.50;;;13.10;99.90;13.20;100468.00;;;;4974931;28;111074;-64
2021/10/06 05:48:06;;;;;;;0.30;0.30;;;13.10;99.90;13.20;100458.00;;;;4975978;28;87688;-65
2021/10/06 05:50:32;;;;;;;1.43;0.40;;;13.10;99.90;13.10;100479.00;;;;4975172;28;88414;-65
2021/10/06 05:53:04;;;;;;;1.40;0.50;;;13.10;99.90;13.20;100472.00;;;;4973993;28;96151;-64
2021/10/06 05:55:31;;;;;;;2.10;0.57;;;13.10;99.90;13.20;100482.00;;;;4974244;28;87810;-64
2021/10/06 05:57:56;;;;;;;0.33;0.33;;;13.20;99.90;13.20;100481.00;;;;4973379;28;87207;-65
2021/10/06 06:00:22;;;;;;;0.80;0.50;;;13.20;99.90;13.20;100491.00;;;;4955058;28;89068;-64
2021/10/06 06:02:48;;;;;;;0.63;0.43;;;13.20;99.90;13.30;100487.00;;;;4956547;28;88431;-65
2021/10/06 06:05:19;;;;;;;0.40;0.30;;;13.20;99.90;13.30;100497.00;;;;4957485;28;111399;-64
2021/10/06 06:07:45;;;;;;;0.23;0.23;;;13.20;99.90;13.30;100495.00;;;;4960336;28;87871;-64
2021/10/06 06:10:12;;;;;;;0.20;0.20;;;13.20;99.90;13.30;100503.00;;;;4970324;28;88247;-64
2021/10/06 06:12:39;;;;;;;0.47;0.30;;;13.30;99.90;13.30;100501.00;;;;4978963;28;87542;-64
2021/10/06 06:15:06;;;;;;;0.40;0.40;;;13.30;99.90;13.30;100515.00;;;;4959526;28;87872;-65
2021/10/06 06:17:37;;;;;;;0.23;0.23;;;13.30;99.90;13.40;100508.00;;;;4977382;28;87804;-63
2021/10/06 06:20:10;;;;;;;0.57;0.40;;;13.30;99.90;13.40;100526.00;;;;4978312;28;88232;-63
2021/10/06 06:22:36;;;;;;;0.40;0.37;;;13.30;99.90;13.40;100535.00;;;;4976979;28;88899;-63
2021/10/06 06:25:03;;;;;;;0.77;0.60;;;13.30;99.90;13.40;100539.00;;;;4975632;28;91280;-64
2021/10/06 06:27:29;;;;;;;3.17;0.90;;;13.40;99.90;13.40;100536.00;;;;4977113;28;87860;-63
2021/10/06 06:29:54;;;;;;;1.13;0.53;;;13.30;99.90;13.40;100539.00;;;;4976638;28;111475;-63
2021/10/06 06:32:20;;;;;;;0.93;0.50;;;13.40;99.90;13.40;100542.00;;;;4973659;28;118081;-64
2021/10/06 06:34:46;;;;;;;0.50;0.30;;;13.40;99.90;13.40;100541.00;;;;4957616;28;87728;-64
2021/10/06 06:37:11;;;;;;;1.13;0.70;;;13.40;99.90;13.40;100547.00;;;;4958947;28;107942;-63
2021/10/06 06:39:37;;;;;;;0.27;0.20;;;13.40;99.90;13.40;100538.00;;;;4975555;28;117959;-64
2021/10/06 06:42:03;;;;;;;1.63;0.90;;;13.40;99.90;13.40;100545.00;;;;4975029;28;115517;-64
2021/10/06 06:44:29;;;;;;;1.00;0.60;;;13.30;99.90;13.40;100550.00;;;;4976982;28;111070;-63
2021/10/06 06:46:54;;;;;;;4.13;0.50;;;13.30;99.90;13.40;100556.00;;;;4977450;28;91434;-63
2021/10/06 06:49:20;;;;;;;1.10;0.60;;;13.30;99.90;13.40;100558.00;;;;4956850;28;117444;-63
2021/10/06 06:51:46;;;;;;;0.40;0.40;;;13.40;99.90;13.50;100559.00;;;;4957040;28;118635;-63
2021/10/06 06:54:11;;;;;;;2.30;0.50;;;13.40;99.90;13.50;100554.00;;;;4962362;28;110552;-63
2021/10/06 06:56:40;;;;;;;0.40;0.33;;;13.40;99.90;13.50;100554.00;;;;4966593;28;87381;-63
2021/10/06 06:59:08;;;;;;;0.70;0.60;;;13.50;99.90;13.50;100562.00;;;;4957181;28;88128;-64
2021/10/06 07:01:34;;;;;;;1.10;0.40;;;13.50;99.90;13.50;100559.00;;;;4957550;28;88573;-64
2021/10/06 07:04:00;;;;;;;0.43;0.30;;;13.50;99.90;13.60;100569.00;;;;4976061;28;87668;-65
2021/10/06 07:06:32;;;;;;;0.30;0.30;;;13.50;99.90;13.60;100565.00;;;;4959859;28;87961;-65
2021/10/06 07:08:58;;;;;;;2.73;0.70;;;13.50;99.90;13.70;100578.00;;;;4958073;28;88728;-65
2021/10/06 07:11:23;;;;;;;0.40;0.40;;;13.60;99.90;13.80;100574.00;;;;4956882;28;118022;-64
2021/10/06 07:13:49;;;;;;;2.97;0.70;;;13.60;99.90;13.90;100589.00;;;;4938101;28;110152;-66
2021/10/06 07:16:15;;;;;;;0.53;0.53;;;13.80;99.90;14.00;100587.00;;;;4957321;28;108340;-65
2021/10/06 07:18:41;;;;;;;0.30;0.30;;;13.90;99.90;14.20;100581.00;;;;4956203;28;119060;-65
2021/10/06 07:21:07;;;;;;;0.50;0.40;;;14.00;99.90;14.30;100588.00;;;;4957298;28;89826;-65
2021/10/06 07:23:32;;;;;;;0.40;0.40;;;14.20;99.90;14.30;100582.00;;;;4957917;28;110690;-65
2021/10/06 07:25:59;;;;;;;0.80;0.57;;;14.20;99.90;14.40;100578.00;;;;4954878;28;87855;-66
2021/10/06 07:28:24;;;;;;;0.30;0.30;;;14.30;99.90;14.40;100582.00;;;;4957395;28;98871;-66
2021/10/06 07:30:51;;;;;;;1.10;0.70;;;14.30;99.90;14.40;100574.00;;;;4956738;28;98765;-67
2021/10/06 07:33:17;;;;;;;1.20;0.40;;;15.40;99.90;14.40;100586.00;;;;4955494;28;87729;-66
2021/10/06 07:35:43;;;;;;;1.67;1.20;;;14.30;99.90;14.30;100593.00;;;;4956545;28;107957;-66
2021/10/06 07:38:09;;;;;;;2.23;0.93;;;14.30;99.90;14.30;100601.00;;;;4956610;28;97684;-65
2021/10/06 07:40:34;;;;;;;2.93;0.67;;;14.20;99.90;14.20;100597.00;;;;4956348;28;117547;-65
2021/10/06 07:43:00;;;;;;;0.40;0.40;;;14.10;99.90;14.10;100599.00;;;;4954687;28;110975;-65
2021/10/06 07:45:26;;;;;;;0.43;0.40;;;14.10;99.90;14.10;100601.00;;;;4957584;28;88064;-65
2021/10/06 07:47:51;;;;;;;0.57;0.37;;;14.10;99.90;14.00;100601.00;;;;4955798;28;117737;-63
2021/10/06 07:50:17;;;;;;;0.93;0.50;;;14.00;99.90;14.00;100605.00;;;;4955852;28;116804;-63
2021/10/06 07:52:43;;;;;;;1.53;0.30;;;14.00;99.90;14.20;100599.00;;;;4956323;28;110583;-63
2021/10/06 07:55:09;;;;;;;0.63;0.47;;;14.10;99.90;14.50;100614.00;;;;4956050;28;87626;-66
2021/10/06 07:57:35;;;;;;;0.60;0.30;;;14.30;99.90;14.80;100621.00;;;;4954967;28;88613;-64
2021/10/06 08:00:07;;;;;;;0.73;0.50;;;14.60;99.90;15.10;100627.00;;;;4956776;28;87711;-64
2021/10/06 08:02:33;;;;;;;0.30;0.30;;;14.90;99.90;15.40;100623.00;;;;4955047;28;93759;-65
2021/10/06 08:04:59;;;;;;;0.50;0.50;;;15.20;99.90;15.60;100621.00;;;;4956967;28;87850;-65
2021/10/06 08:07:25;;;;;;;0.20;0.20;;;15.40;99.90;15.80;100630.00;;;;4956750;28;89042;-65
2021/10/06 08:09:50;;;;;;;3.20;0.40;;;15.70;99.90;16.10;100622.00;;;;4955105;28;118442;-64
2021/10/06 08:12:16;;;;;;;3.23;0.60;;;15.90;99.90;16.30;100625.00;;;;4951691;28;111400;-63
2021/10/06 08:14:42;;;;;;;0.50;0.50;;;16.20;99.90;16.50;100625.00;;;;4935713;28;108289;-65
2021/10/06 08:17:08;;;;;;;0.63;0.50;;;16.40;99.90;16.50;100637.00;;;;4936823;28;88830;-64
2021/10/06 08:19:33;;;;;;;1.15;0.52;;;16.50;98.80;16.50;100635.00;;;;4936001;28;118103;-64
2021/10/06 08:21:59;;;;;;;0.32;0.32;;;16.50;96.90;16.50;100645.00;;;;4937421;28;110428;-65
2021/10/06 08:24:26;;;;;;;0.57;0.38;;;16.50;97.10;16.70;100644.00;;;;4945895;28;108514;-64
2021/10/06 08:26:53;;;;;;;0.77;0.30;;;16.60;95.60;16.80;100646.00;;;;4952612;28;101718;-64
2021/10/06 08:29:18;;;;;;;0.47;0.47;;;16.70;94.70;16.90;100656.00;;;;4968670;28;88695;-64
2021/10/06 08:31:44;;;;;;;0.52;0.40;;;16.80;94.70;17.00;100665.00;;;;4976267;28;88574;-67
2021/10/06 08:34:10;;;;;;;1.30;0.32;;;16.90;94.00;17.20;100666.00;;;;4937153;28;109610;-64
2021/10/06 08:36:37;;;;;;;5.95;0.85;;;17.10;93.90;17.30;100676.00;;;;4956873;28;88442;-66
2021/10/06 08:39:08;;;;;;;2.45;0.40;;;17.20;93.30;17.50;100677.00;;;;4956765;28;88321;-65
2021/10/06 08:41:34;;;;;;;1.75;0.55;;;17.40;92.80;17.70;100685.00;;;;4956547;28;87664;-66
2021/10/06 08:44:01;;;;;;;0.82;0.43;;;17.60;91.80;17.90;100693.00;;;;4957623;28;88124;-65
2021/10/06 08:46:28;;;;;;;0.20;0.20;;;17.80;90.40;18.10;100688.00;;;;4938100;28;88175;-66
2021/10/06 08:48:55;;;;;;;0.20;0.20;;;18.00;90.80;18.30;100693.00;;;;4940392;28;116479;-65
2021/10/06 08:51:23;;;;;;;2.17;0.52;;;18.10;89.40;18.50;100688.00;;;;4975589;28;91323;-65
2021/10/06 08:53:50;;;;;;;0.30;0.30;;;18.40;82.80;18.40;100693.00;;;;4958260;28;104190;-67
2021/10/06 08:56:17;;;;;;;2.90;0.43;;;18.40;82.20;18.40;100697.00;;;;4943180;28;90026;-67
2021/10/06 08:58:43;;;;;;;0.28;0.10;;;18.40;81.10;18.50;100701.00;;;;4975515;28;89379;-68
2021/10/06 09:01:25;;;;;;;1.35;0.50;;;18.40;81.80;18.60;100721.00;;;;4975957;28;88181;-68
2021/10/06 09:04:01;;;;;;;2.50;0.60;;;18.50;81.40;18.70;100710.00;;;;4956590;28;87852;-68
2021/10/06 09:06:39;;;;;;;0.93;0.57;;;18.60;79.00;18.70;100715.00;;;;4975261;28;89245;-68
2021/10/06 09:09:23;;;;;;;0.25;0.17;;;18.60;79.10;18.90;100723.00;;;;4975640;28;88308;-68
2021/10/06 09:11:54;;;;;;;1.00;0.68;;;18.80;78.60;19.00;100724.00;;;;4975178;28;87807;-68
2021/10/06 09:14:22;;;;;;;0.55;0.40;;;18.90;78.00;19.20;100727.00;;;;4975763;28;86936;-68
2021/10/06 09:17:04;;;;;;;2.75;0.85;;;19.00;79.00;19.30;100721.00;;;;4975577;28;87754;-69
2021/10/06 09:19:46;;;;;;;0.45;0.43;;;19.20;76.00;19.60;100733.00;;;;4975593;28;87823;-68
2021/10/06 09:22:27;;;;;;;0.55;0.50;;;19.30;74.40;19.70;100731.00;;;;4956686;28;88786;-68
2021/10/06 09:24:57;;;;;;;1.50;0.60;;;19.50;74.00;19.80;100736.00;;;;4962772;28;87959;-68
2021/10/06 09:27:27;;;;;;;1.00;0.50;;;19.60;73.90;19.70;100751.00;;;;4961892;28;88121;-68
2021/10/06 09:29:57;;;;;;;1.80;0.20;;;19.60;72.50;19.40;100737.00;;;;4975021;28;88967;-70
2021/10/06 09:32:34;;;;;;;1.90;0.70;;;19.40;71.90;19.10;100747.00;;;;4975454;28;87517;-68
2021/10/06 09:35:06;;;;;;;1.23;0.82;;;19.10;71.30;18.80;100743.00;;;;4975386;28;87575;-68
2021/10/06 09:37:31;;;;;;;1.02;0.55;;;18.80;72.20;18.60;100749.00;;;;4975594;28;88139;-67
2021/10/06 09:39:58;;;;;;;3.72;0.50;;;18.60;74.00;18.50;100748.00;;;;4979232;28;88681;-69
2021/10/06 09:42:24;;;;;;;2.50;0.50;;;18.50;75.90;18.40;100751.00;;;;4973864;28;87915;-67
2021/10/06 09:44:56;;;;;;;0.52;0.52;;;18.40;76.60;18.40;100751.00;;;;4959336;28;87944;-68
2021/10/06 09:47:23;;;;;;;0.35;0.35;;;18.30;77.50;18.40;100747.00;;;;4942747;28;88872;-68
2021/10/06 09:49:58;;;;;;;0.40;0.40;;;18.20;79.30;18.40;100756.00;;;;4958257;28;89409;-69
2021/10/06 09:52:31;;;;;;;0.70;0.50;;;18.20;80.40;18.40;100764.00;;;;4949709;28;87882;-68
2021/10/06 09:55:05;;;;;;;0.32;0.32;;;18.20;80.80;18.30;100762.00;;;;4976015;28;87736;-68
2021/10/06 09:57:39;;;;;;;0.45;0.30;;;18.20;79.30;18.10;100753.00;;;;4978480;28;87680;-68
2021/10/06 10:00:13;;;;;;;1.80;0.30;;;18.00;79.70;18.00;100769.00;;;;4978407;28;101375;-69
2021/10/06 10:02:40;;;;;;;0.20;0.20;;;17.90;80.40;18.00;100756.00;;;;4976690;28;88042;-68
2021/10/06 10:05:07;;;;;;;0.65;0.20;;;17.80;81.00;17.90;100762.00;;;;4959606;28;89340;-69
2021/10/06 10:07:33;;;;;;;0.40;0.22;;;17.80;81.80;17.90;100761.00;;;;4978230;28;88617;-69
2021/10/06 10:10:00;;;;;;;0.38;0.30;;;17.80;82.50;17.80;100755.00;;;;4977076;28;117337;-69
2021/10/06 10:12:27;;;;;;;0.50;0.43;;;17.70;82.30;17.80;100760.00;;;;4959803;28;90645;-68
2021/10/06 10:14:55;;;;;;;0.28;0.28;;;17.70;82.40;17.80;100771.00;;;;4978099;28;87663;-68
2021/10/06 10:17:22;;;;;;;0.77;0.03;;;17.70;82.70;17.80;100773.00;;;;4978120;28;88512;-69
2021/10/06 10:20:00;;;;;;;0.50;0.40;;;17.70;83.20;17.80;100772.00;;;;4972193;28;87880;-69
2021/10/06 10:22:32;;;;;;;0.30;0.30;;;17.70;81.50;17.80;100780.00;;;;4940368;28;87682;-68
2021/10/06 10:24:58;;;;;;;3.50;0.50;;;17.60;82.30;17.80;100776.00;;;;4940147;28;87788;-69
2021/10/06 10:27:25;;;;;;;1.55;0.50;;;17.60;82.20;17.80;100766.00;;;;4957265;28;117159;-69
2021/10/06 10:30:04;;;;;;;0.52;0.40;;;17.60;82.80;17.80;100777.00;;;;4958157;28;87969;-69
2021/10/06 10:32:46;;;;;;;5.25;0.30;;;17.70;82.80;17.90;100773.00;;;;4968414;28;87666;-68
2021/10/06 10:35:19;;;;;;;3.40;0.20;;;17.70;81.40;17.90;100783.00;;;;4959398;28;87689;-68
2021/10/06 10:37:45;;;;;;;0.20;0.20;;;17.70;80.20;17.90;100786.00;;;;4977632;28;88566;-68
2021/10/06 10:40:50;;;;;;;0.13;0.13;;;17.70;79.50;17.90;100790.00;;;;4977605;28;89313;-68
2021/10/06 10:43:19;;;;;;;3.20;0.45;;;17.70;79.00;18.10;100790.00;;;;4954710;28;87939;-68
2021/10/06 10:46:10;;;;;;;1.92;0.95;;;17.80;79.30;18.30;100793.00;;;;4990087;28;87654;-69